N1261P CYXU-CYXU
Flight info
| Callsign | N1261P |
|---|---|
| Flight time | 0h 13m |
| Altitude | 2000 |
| Route | ZZZZ CYXU |
| Aircraft | SR22/L-V/N |
Departure
| Time | 2026-04-24 01:11 |
|---|---|
| Airport | London International Airport (CYXU) |
Arrival
| Time | 2026-04-24 01:25 |
|---|---|
| Airport | London International Airport (CYXU) |
| Time | Latitude | Longitude | Altitude | Speed | Heading |
|---|---|---|---|---|---|
| 2026-04-24 00:57 | 43.03566 | -81.16272 | 906 ft | 0 kts | 73° |
| 2026-04-24 01:07 | 43.03567 | -81.16271 | 906 ft | 2 kts | 74° |
| 2026-04-24 01:07 | 43.03603 | -81.16178 | 904 ft | 12 kts | 39° |
| 2026-04-24 01:08 | 43.03653 | -81.16089 | 903 ft | 17 kts | 80° |
| 2026-04-24 01:08 | 43.03676 | -81.15928 | 902 ft | 16 kts | 80° |
| 2026-04-24 01:08 | 43.03701 | -81.15760 | 899 ft | 16 kts | 75° |
| 2026-04-24 01:08 | 43.03777 | -81.15780 | 899 ft | 13 kts | 319° |
| 2026-04-24 01:09 | 43.03867 | -81.15890 | 901 ft | 22 kts | 315° |
| 2026-04-24 01:09 | 43.03974 | -81.16013 | 903 ft | 7 kts | 337° |
| 2026-04-24 01:09 | 43.03977 | -81.16014 | 904 ft | 0 kts | 339° |
| 2026-04-24 01:10 | 43.03992 | -81.16016 | 904 ft | 14 kts | 356° |
| 2026-04-24 01:10 | 43.04120 | -81.15967 | 908 ft | 21 kts | 45° |
| 2026-04-24 01:10 | 43.04060 | -81.15806 | 904 ft | 41 kts | 140° |
| 2026-04-24 01:11 | 43.03684 | -81.15353 | 968 ft | 90 kts | 139° |
| 2026-04-24 01:11 | 43.03194 | -81.14782 | 1220 ft | 98 kts | 139° |
| 2026-04-24 01:11 | 43.02672 | -81.14184 | 1500 ft | 101 kts | 139° |
| 2026-04-24 01:11 | 43.02221 | -81.13461 | 1769 ft | 105 kts | 110° |
| 2026-04-24 01:12 | 43.02424 | -81.12476 | 1999 ft | 115 kts | 60° |
| 2026-04-24 01:12 | 43.02868 | -81.11594 | 1949 ft | 114 kts | 57° |
| 2026-04-24 01:12 | 43.03339 | -81.10704 | 2010 ft | 117 kts | 56° |
| 2026-04-24 01:12 | 43.03838 | -81.09821 | 2023 ft | 118 kts | 44° |
| 2026-04-24 01:13 | 43.04612 | -81.09686 | 1949 ft | 128 kts | 335° |
| 2026-04-24 01:13 | 43.05333 | -81.10358 | 1965 ft | 124 kts | 320° |
| 2026-04-24 01:13 | 43.05997 | -81.11101 | 1985 ft | 119 kts | 317° |
| 2026-04-24 01:13 | 43.06597 | -81.11836 | 1842 ft | 119 kts | 316° |
| 2026-04-24 01:14 | 43.07202 | -81.12636 | 1634 ft | 121 kts | 309° |
| 2026-04-24 01:14 | 43.07261 | -81.13668 | 1517 ft | 124 kts | 241° |
| 2026-04-24 01:14 | 43.07120 | -81.14023 | 1546 ft | 116 kts | 238° |
| 2026-04-24 01:14 | 43.06703 | -81.14947 | 1462 ft | 113 kts | 233° |
| 2026-04-24 01:15 | 43.06264 | -81.15747 | 1381 ft | 99 kts | 228° |
| 2026-04-24 01:15 | 43.05837 | -81.16422 | 1294 ft | 94 kts | 223° |
| 2026-04-24 01:15 | 43.05312 | -81.16932 | 1293 ft | 91 kts | 189° |
| 2026-04-24 01:15 | 43.04704 | -81.16567 | 1118 ft | 101 kts | 141° |
| 2026-04-24 01:16 | 43.04238 | -81.16006 | 966 ft | 81 kts | 140° |
| 2026-04-24 01:16 | 43.03859 | -81.15545 | 1563 ft | 148 kts | 130° |
| 2026-04-24 01:16 | 43.03165 | -81.14645 | 1653 ft | 123 kts | 143° |
| 2026-04-24 01:16 | 43.02610 | -81.13998 | 1827 ft | 92 kts | 144° |
| 2026-04-24 01:17 | 43.02053 | -81.13452 | 2109 ft | 99 kts | 147° |
| 2026-04-24 01:17 | 43.02063 | -81.12465 | 1920 ft | 118 kts | 68° |
| 2026-04-24 01:17 | 43.02421 | -81.11501 | 1957 ft | 115 kts | 58° |
| 2026-04-24 01:17 | 43.03006 | -81.10776 | 1949 ft | 118 kts | 21° |
| 2026-04-24 01:18 | 43.03743 | -81.11097 | 1876 ft | 114 kts | 313° |
| 2026-04-24 01:18 | 43.03944 | -81.11383 | 1878 ft | 110 kts | 310° |
| 2026-04-24 01:18 | 43.04435 | -81.12146 | 1831 ft | 108 kts | 307° |
| 2026-04-24 01:18 | 43.04891 | -81.12985 | 1731 ft | 110 kts | 303° |
| 2026-04-24 01:19 | 43.05319 | -81.13863 | 1742 ft | 112 kts | 299° |
| 2026-04-24 01:19 | 43.05715 | -81.14792 | 1741 ft | 112 kts | 294° |
| 2026-04-24 01:19 | 43.05940 | -81.15793 | 1702 ft | 114 kts | 260° |
| 2026-04-24 01:19 | 43.05558 | -81.16659 | 1676 ft | 100 kts | 212° |
| 2026-04-24 01:20 | 43.04893 | -81.16674 | 1371 ft | 101 kts | 153° |
| 2026-04-24 01:20 | 43.04334 | -81.16126 | 1083 ft | 99 kts | 153° |
| 2026-04-24 01:20 | 43.03839 | -81.15542 | 925 ft | 83 kts | 140° |
| 2026-04-24 01:20 | 43.03513 | -81.15145 | 1567 ft | 148 kts | 130° |
| 2026-04-24 01:21 | 43.02687 | -81.14223 | 1407 ft | 154 kts | 154° |
| 2026-04-24 01:21 | 43.01955 | -81.13481 | 1918 ft | 106 kts | 150° |
| 2026-04-24 01:21 | 43.01354 | -81.12963 | 1926 ft | 95 kts | 156° |
| 2026-04-24 01:21 | 43.00943 | -81.12249 | 1984 ft | 123 kts | 69° |
| 2026-04-24 01:22 | 43.01396 | -81.11154 | 2089 ft | 145 kts | 53° |
| 2026-04-24 01:22 | 43.02041 | -81.10122 | 2113 ft | 130 kts | 49° |
| 2026-04-24 01:22 | 43.02795 | -81.09413 | 1814 ft | 140 kts | 12° |
| 2026-04-24 01:22 | 43.03630 | -81.09791 | 1777 ft | 127 kts | 321° |
| 2026-04-24 01:23 | 43.04194 | -81.10723 | 1711 ft | 124 kts | 304° |
| 2026-04-24 01:23 | 43.04649 | -81.11707 | 1636 ft | 117 kts | 300° |
| 2026-04-24 01:23 | 43.05047 | -81.12659 | 1573 ft | 113 kts | 297° |
| 2026-04-24 01:23 | 43.05396 | -81.13621 | 1437 ft | 110 kts | 295° |
| 2026-04-24 01:24 | 43.05733 | -81.14561 | 1422 ft | 110 kts | 294° |
| 2026-04-24 01:24 | 43.06031 | -81.15549 | 1784 ft | 118 kts | 272° |
| 2026-04-24 01:24 | 43.05703 | -81.16573 | 1788 ft | 118 kts | 219° |
| 2026-04-24 01:24 | 43.05093 | -81.16781 | 1541 ft | 92 kts | 156° |
| 2026-04-24 01:25 | 43.04539 | -81.16362 | 1262 ft | 102 kts | 142° |
| 2026-04-24 01:25 | 43.04039 | -81.15779 | 957 ft | 85 kts | 138° |
| 2026-04-24 01:25 | 43.03681 | -81.15345 | 902 ft | 46 kts | 139° |
| 2026-04-24 01:25 | 43.03556 | -81.15197 | 906 ft | 17 kts | 139° |
| 2026-04-24 01:26 | 43.03463 | -81.15086 | 905 ft | 24 kts | 137° |
| 2026-04-24 01:26 | 43.03367 | -81.14963 | 904 ft | 0 kts | 140° |
| 2026-04-24 01:26 | 43.03353 | -81.14947 | 903 ft | 8 kts | 140° |
| 2026-04-24 01:26 | 43.03252 | -81.14830 | 900 ft | 49 kts | 136° |
| 2026-04-24 01:27 | 43.02839 | -81.14335 | 929 ft | 99 kts | 138° |
| 2026-04-24 01:27 | 43.02310 | -81.13675 | 1211 ft | 99 kts | 135° |
| 2026-04-24 01:27 | 43.01856 | -81.13043 | 1466 ft | 95 kts | 130° |
| 2026-04-24 01:27 | 43.01413 | -81.12340 | 1721 ft | 100 kts | 130° |
| 2026-04-24 01:28 | 43.01027 | -81.11551 | 2027 ft | 100 kts | 122° |
| 2026-04-24 01:28 | 43.01334 | -81.10679 | 2109 ft | 119 kts | 45° |
| 2026-04-24 01:28 | 43.01928 | -81.09965 | 2050 ft | 108 kts | 41° |
| 2026-04-24 01:28 | 43.02526 | -81.09418 | 1939 ft | 102 kts | 33° |
| 2026-04-24 01:29 | 43.03171 | -81.09572 | 1816 ft | 108 kts | 323° |
| 2026-04-24 01:29 | 43.03791 | -81.10250 | 1901 ft | 116 kts | 315° |
| 2026-04-24 01:29 | 43.04332 | -81.11090 | 2056 ft | 115 kts | 303° |
| 2026-04-24 01:29 | 43.04687 | -81.12007 | 2277 ft | 106 kts | 293° |
| 2026-04-24 01:30 | 43.05083 | -81.12958 | 2037 ft | 117 kts | 296° |
| 2026-04-24 01:30 | 43.05446 | -81.13844 | 1959 ft | 107 kts | 294° |
| 2026-04-24 01:30 | 43.05678 | -81.14793 | 1776 ft | 109 kts | 266° |
| 2026-04-24 01:30 | 43.05355 | -81.15660 | 1651 ft | 101 kts | 216° |
| 2026-04-24 01:31 | 43.04739 | -81.16111 | 1333 ft | 106 kts | 193° |
| 2026-04-24 01:31 | 43.04072 | -81.15807 | 991 ft | 107 kts | 136° |
| 2026-04-24 01:31 | 43.03583 | -81.15213 | 911 ft | 78 kts | 139° |
| 2026-04-24 01:31 | 43.03237 | -81.14807 | 900 ft | 61 kts | 138° |
| 2026-04-24 01:32 | 43.02824 | -81.14309 | 1090 ft | 85 kts | 136° |
| 2026-04-24 01:32 | 43.02393 | -81.13804 | 1478 ft | 82 kts | 141° |
| 2026-04-24 01:32 | 43.01933 | -81.13310 | 1817 ft | 83 kts | 145° |
| 2026-04-24 01:32 | 43.01620 | -81.12639 | 2008 ft | 102 kts | 72° |
| 2026-04-24 01:33 | 43.01946 | -81.11705 | 2205 ft | 112 kts | 66° |
| 2026-04-24 01:33 | 43.02517 | -81.11118 | 2074 ft | 116 kts | 356° |
| 2026-04-24 01:33 | 43.03145 | -81.11579 | 2039 ft | 104 kts | 309° |
| 2026-04-24 01:33 | 43.03585 | -81.12339 | 1967 ft | 100 kts | 307° |
| 2026-04-24 01:34 | 43.04002 | -81.13074 | 1880 ft | 97 kts | 303° |
| 2026-04-24 01:34 | 43.04414 | -81.13886 | 1728 ft | 109 kts | 300° |
| 2026-04-24 01:34 | 43.04780 | -81.14757 | 1688 ft | 106 kts | 295° |
| 2026-04-24 01:34 | 43.05090 | -81.15657 | 1604 ft | 105 kts | 289° |
| 2026-04-24 01:35 | 43.04943 | -81.16404 | 1274 ft | 94 kts | 190° |
| 2026-04-24 01:35 | 43.04353 | -81.16094 | 1002 ft | 84 kts | 155° |
| 2026-04-24 01:35 | 43.03943 | -81.15644 | 905 ft | 65 kts | 139° |
| 2026-04-24 01:35 | 43.03721 | -81.15382 | 902 ft | 28 kts | 139° |
| 2026-04-24 01:36 | 43.03583 | -81.15268 | 906 ft | 8 kts | 210° |
| 2026-04-24 01:36 | 43.03556 | -81.15309 | 905 ft | 0 kts | 227° |
| 2026-04-24 01:36 | 43.03555 | -81.15311 | 905 ft | 2 kts | 228° |
| 2026-04-24 01:36 | 43.03551 | -81.15317 | 905 ft | 2 kts | 228° |
| 2026-04-24 01:37 | 43.03497 | -81.15406 | 902 ft | 21 kts | 229° |
| 2026-04-24 01:37 | 43.03556 | -81.15522 | 899 ft | 19 kts | 288° |
| 2026-04-24 01:37 | 43.03874 | -81.15563 | 900 ft | 0 kts | 139° |